sensor_id;sensor_type;location;lat;lon;timestamp;temperature;humidity
6627;DHT22;3349;49.830;8.748;2022-10-15T00:00:36;14.10;99.90
6627;DHT22;3349;49.830;8.748;2022-10-15T00:03:03;14.10;99.90
6627;DHT22;3349;49.830;8.748;2022-10-15T00:05:30;14.10;99.90
6627;DHT22;3349;49.830;8.748;2022-10-15T00:07:56;14.20;99.90
6627;DHT22;3349;49.830;8.748;2022-10-15T00:10:24;14.20;99.90
6627;DHT22;3349;49.830;8.748;2022-10-15T00:12:51;14.20;99.90
6627;DHT22;3349;49.830;8.748;2022-10-15T00:15:18;14.10;99.90
6627;DHT22;3349;49.830;8.748;2022-10-15T00:17:44;14.10;99.90
6627;DHT22;3349;49.830;8.748;2022-10-15T00:20:12;14.20;99.90
6627;DHT22;3349;49.830;8.748;2022-10-15T00:22:38;14.20;99.90
6627;DHT22;3349;49.830;8.748;2022-10-15T00:25:06;14.20;99.90
6627;DHT22;3349;49.830;8.748;2022-10-15T00:27:35;14.20;99.90
6627;DHT22;3349;49.830;8.748;2022-10-15T00:30:03;14.20;99.90
6627;DHT22;3349;49.830;8.748;2022-10-15T00:32:30;14.10;99.90
6627;DHT22;3349;49.830;8.748;2022-10-15T00:34:57;14.20;99.90
6627;DHT22;3349;49.830;8.748;2022-10-15T00:37:25;14.20;99.90
6627;DHT22;3349;49.830;8.748;2022-10-15T00:39:51;14.20;99.90
6627;DHT22;3349;49.830;8.748;2022-10-15T00:42:18;14.20;99.90
6627;DHT22;3349;49.830;8.748;2022-10-15T00:44:50;14.20;99.90
6627;DHT22;3349;49.830;8.748;2022-10-15T00:47:22;14.20;99.90
6627;DHT22;3349;49.830;8.748;2022-10-15T00:49:55;14.20;99.90
6627;DHT22;3349;49.830;8.748;2022-10-15T00:52:28;14.20;99.90
6627;DHT22;3349;49.830;8.748;2022-10-15T00:54:59;14.20;99.90
6627;DHT22;3349;49.830;8.748;2022-10-15T00:57:27;14.20;99.90
6627;DHT22;3349;49.830;8.748;2022-10-15T00:59:59;14.20;99.90
6627;DHT22;3349;49.830;8.748;2022-10-15T01:02:27;14.30;99.90
6627;DHT22;3349;49.830;8.748;2022-10-15T01:04:54;14.20;99.90
6627;DHT22;3349;49.830;8.748;2022-10-15T01:07:21;14.30;99.90
6627;DHT22;3349;49.830;8.748;2022-10-15T01:09:48;14.30;99.90
6627;DHT22;3349;49.830;8.748;2022-10-15T01:12:21;14.20;99.90
6627;DHT22;3349;49.830;8.748;2022-10-15T01:14:58;14.30;99.90
6627;DHT22;3349;49.830;8.748;2022-10-15T01:17:31;14.30;99.90
6627;DHT22;3349;49.830;8.748;2022-10-15T01:23:35;14.30;99.90
6627;DHT22;3349;49.830;8.748;2022-10-15T01:26:16;14.30;99.90
6627;DHT22;3349;49.830;8.748;2022-10-15T01:28:52;14.30;99.90
6627;DHT22;3349;49.830;8.748;2022-10-15T01:31:31;14.30;99.90
6627;DHT22;3349;49.830;8.748;2022-10-15T01:34:02;14.30;99.90
6627;DHT22;3349;49.830;8.748;2022-10-15T01:36:33;14.30;99.90
6627;DHT22;3349;49.830;8.748;2022-10-15T01:39:08;14.30;99.90
6627;DHT22;3349;49.830;8.748;2022-10-15T01:41:40;14.30;99.90
6627;DHT22;3349;49.830;8.748;2022-10-15T01:44:12;14.30;99.90
6627;DHT22;3349;49.830;8.748;2022-10-15T01:46:46;14.30;99.90
6627;DHT22;3349;49.830;8.748;2022-10-15T01:49:17;14.30;99.90
6627;DHT22;3349;49.830;8.748;2022-10-15T01:51:47;14.30;99.90
6627;DHT22;3349;49.830;8.748;2022-10-15T01:54:17;14.30;99.90
6627;DHT22;3349;49.830;8.748;2022-10-15T01:56:46;14.30;99.90
6627;DHT22;3349;49.830;8.748;2022-10-15T01:59:16;14.30;99.90
6627;DHT22;3349;49.830;8.748;2022-10-15T02:01:45;14.30;99.90
6627;DHT22;3349;49.830;8.748;2022-10-15T02:04:18;14.40;99.90
6627;DHT22;3349;49.830;8.748;2022-10-15T02:06:49;14.40;99.90
6627;DHT22;3349;49.830;8.748;2022-10-15T02:09:26;14.40;99.90
6627;DHT22;3349;49.830;8.748;2022-10-15T02:12:02;14.30;99.90
6627;DHT22;3349;49.830;8.748;2022-10-15T02:14:39;14.40;99.90
6627;DHT22;3349;49.830;8.748;2022-10-15T02:17:09;14.40;99.90
6627;DHT22;3349;49.830;8.748;2022-10-15T02:19:42;14.40;99.90
6627;DHT22;3349;49.830;8.748;2022-10-15T02:22:13;14.40;99.90
6627;DHT22;3349;49.830;8.748;2022-10-15T02:24:46;14.40;99.90
6627;DHT22;3349;49.830;8.748;2022-10-15T02:27:15;14.40;99.90
6627;DHT22;3349;49.830;8.748;2022-10-15T02:29:45;14.40;99.90
6627;DHT22;3349;49.830;8.748;2022-10-15T02:32:15;14.40;99.90
6627;DHT22;3349;49.830;8.748;2022-10-15T02:34:43;14.40;99.90
6627;DHT22;3349;49.830;8.748;2022-10-15T02:37:11;14.40;99.90
6627;DHT22;3349;49.830;8.748;2022-10-15T02:39:39;14.40;99.90
6627;DHT22;3349;49.830;8.748;2022-10-15T02:42:06;14.40;99.90
6627;DHT22;3349;49.830;8.748;2022-10-15T02:44:35;14.50;99.90
6627;DHT22;3349;49.830;8.748;2022-10-15T02:47:03;14.50;99.90
6627;DHT22;3349;49.830;8.748;2022-10-15T02:49:31;14.50;99.90
6627;DHT22;3349;49.830;8.748;2022-10-15T02:51:58;14.50;99.90
6627;DHT22;3349;49.830;8.748;2022-10-15T02:54:24;14.50;99.90
6627;DHT22;3349;49.830;8.748;2022-10-15T02:56:51;14.50;99.90
6627;DHT22;3349;49.830;8.748;2022-10-15T02:59:18;14.50;99.90
6627;DHT22;3349;49.830;8.748;2022-10-15T03:01:45;14.50;99.90
6627;DHT22;3349;49.830;8.748;2022-10-15T03:04:11;14.50;99.90
6627;DHT22;3349;49.830;8.748;2022-10-15T03:06:39;14.50;99.90
6627;DHT22;3349;49.830;8.748;2022-10-15T03:09:06;14.50;99.90
6627;DHT22;3349;49.830;8.748;2022-10-15T03:11:33;14.50;99.90
6627;DHT22;3349;49.830;8.748;2022-10-15T03:13:59;14.50;99.90
6627;DHT22;3349;49.830;8.748;2022-10-15T03:16:26;14.50;99.90
6627;DHT22;3349;49.830;8.748;2022-10-15T03:18:53;14.50;99.90
6627;DHT22;3349;49.830;8.748;2022-10-15T03:21:19;14.50;99.90
6627;DHT22;3349;49.830;8.748;2022-10-15T03:23:47;14.50;99.90
6627;DHT22;3349;49.830;8.748;2022-10-15T03:26:14;14.60;99.90
6627;DHT22;3349;49.830;8.748;2022-10-15T03:28:41;14.50;99.90
6627;DHT22;3349;49.830;8.748;2022-10-15T03:31:07;14.60;99.90
6627;DHT22;3349;49.830;8.748;2022-10-15T03:33:34;14.60;99.90
6627;DHT22;3349;49.830;8.748;2022-10-15T03:36:01;14.60;99.90
6627;DHT22;3349;49.830;8.748;2022-10-15T03:38:27;14.60;99.90
6627;DHT22;3349;49.830;8.748;2022-10-15T03:40:55;14.60;99.90
6627;DHT22;3349;49.830;8.748;2022-10-15T03:43:23;14.60;99.90
6627;DHT22;3349;49.830;8.748;2022-10-15T03:45:50;14.60;99.90
6627;DHT22;3349;49.830;8.748;2022-10-15T03:48:17;14.60;99.90
6627;DHT22;3349;49.830;8.748;2022-10-15T03:50:44;14.60;99.90
6627;DHT22;3349;49.830;8.748;2022-10-15T03:53:11;14.60;99.90
6627;DHT22;3349;49.830;8.748;2022-10-15T03:55:38;14.60;99.90
6627;DHT22;3349;49.830;8.748;2022-10-15T03:58:06;14.60;99.90
6627;DHT22;3349;49.830;8.748;2022-10-15T04:00:33;14.60;99.90
6627;DHT22;3349;49.830;8.748;2022-10-15T04:02:59;14.60;99.90
6627;DHT22;3349;49.830;8.748;2022-10-15T04:05:26;14.50;99.90
6627;DHT22;3349;49.830;8.748;2022-10-15T04:07:53;14.60;99.90
6627;DHT22;3349;49.830;8.748;2022-10-15T04:10:19;14.50;99.90
6627;DHT22;3349;49.830;8.748;2022-10-15T04:12:46;14.60;99.90
6627;DHT22;3349;49.830;8.748;2022-10-15T04:15:14;14.50;99.90
6627;DHT22;3349;49.830;8.748;2022-10-15T04:17:41;14.60;99.90
6627;DHT22;3349;49.830;8.748;2022-10-15T04:20:09;14.50;99.90
6627;DHT22;3349;49.830;8.748;2022-10-15T04:22:36;14.50;99.90
6627;DHT22;3349;49.830;8.748;2022-10-15T04:25:03;14.60;99.90
6627;DHT22;3349;49.830;8.748;2022-10-15T04:27:30;14.50;99.90
6627;DHT22;3349;49.830;8.748;2022-10-15T04:29:57;14.50;99.90
6627;DHT22;3349;49.830;8.748;2022-10-15T04:32:25;14.50;99.90
6627;DHT22;3349;49.830;8.748;2022-10-15T04:34:51;14.50;99.90
6627;DHT22;3349;49.830;8.748;2022-10-15T04:37:18;14.50;99.90
6627;DHT22;3349;49.830;8.748;2022-10-15T04:39:44;14.60;99.90
6627;DHT22;3349;49.830;8.748;2022-10-15T04:42:11;14.50;99.90
6627;DHT22;3349;49.830;8.748;2022-10-15T04:44:38;14.50;99.90
6627;DHT22;3349;49.830;8.748;2022-10-15T04:47:04;14.50;99.90
6627;DHT22;3349;49.830;8.748;2022-10-15T04:49:32;14.50;99.90
6627;DHT22;3349;49.830;8.748;2022-10-15T04:51:59;14.50;99.90
6627;DHT22;3349;49.830;8.748;2022-10-15T04:54:26;14.50;99.90
6627;DHT22;3349;49.830;8.748;2022-10-15T04:56:52;14.50;99.90
6627;DHT22;3349;49.830;8.748;2022-10-15T04:59:19;14.50;99.90
6627;DHT22;3349;49.830;8.748;2022-10-15T05:01:46;14.50;99.90
6627;DHT22;3349;49.830;8.748;2022-10-15T05:04:13;14.50;99.90
6627;DHT22;3349;49.830;8.748;2022-10-15T05:06:41;14.50;99.90
6627;DHT22;3349;49.830;8.748;2022-10-15T05:09:07;14.50;99.90
6627;DHT22;3349;49.830;8.748;2022-10-15T05:11:35;14.40;99.90
6627;DHT22;3349;49.830;8.748;2022-10-15T05:14:03;14.40;99.90
6627;DHT22;3349;49.830;8.748;2022-10-15T05:16:30;14.40;99.90
6627;DHT22;3349;49.830;8.748;2022-10-15T05:19:00;14.40;99.90
6627;DHT22;3349;49.830;8.748;2022-10-15T05:21:28;14.50;99.90
6627;DHT22;3349;49.830;8.748;2022-10-15T05:23:57;14.50;99.90
6627;DHT22;3349;49.830;8.748;2022-10-15T05:26:25;14.40;99.90
6627;DHT22;3349;49.830;8.748;2022-10-15T05:28:54;14.40;99.90
6627;DHT22;3349;49.830;8.748;2022-10-15T05:31:23;14.50;99.90
6627;DHT22;3349;49.830;8.748;2022-10-15T05:33:51;14.50;99.90
6627;DHT22;3349;49.830;8.748;2022-10-15T05:36:21;14.40;99.90
6627;DHT22;3349;49.830;8.748;2022-10-15T05:38:49;14.40;99.90
6627;DHT22;3349;49.830;8.748;2022-10-15T05:41:18;14.40;99.90
6627;DHT22;3349;49.830;8.748;2022-10-15T05:43:45;14.40;99.90
6627;DHT22;3349;49.830;8.748;2022-10-15T05:46:12;14.50;99.90
6627;DHT22;3349;49.830;8.748;2022-10-15T05:48:40;14.40;99.90
6627;DHT22;3349;49.830;8.748;2022-10-15T05:51:11;14.40;99.90
6627;DHT22;3349;49.830;8.748;2022-10-15T05:53:38;14.40;99.90
6627;DHT22;3349;49.830;8.748;2022-10-15T05:56:05;14.40;99.90
6627;DHT22;3349;49.830;8.748;2022-10-15T05:58:35;14.40;99.90
6627;DHT22;3349;49.830;8.748;2022-10-15T06:01:05;14.40;99.90
6627;DHT22;3349;49.830;8.748;2022-10-15T06:03:32;14.40;99.90
6627;DHT22;3349;49.830;8.748;2022-10-15T06:05:59;14.40;99.90
6627;DHT22;3349;49.830;8.748;2022-10-15T06:08:27;14.40;99.90
6627;DHT22;3349;49.830;8.748;2022-10-15T06:10:54;14.40;99.90
6627;DHT22;3349;49.830;8.748;2022-10-15T06:13:23;14.40;99.90
6627;DHT22;3349;49.830;8.748;2022-10-15T06:15:51;14.40;99.90
6627;DHT22;3349;49.830;8.748;2022-10-15T06:18:18;14.40;99.90
6627;DHT22;3349;49.830;8.748;2022-10-15T06:20:50;14.50;99.90
6627;DHT22;3349;49.830;8.748;2022-10-15T06:23:17;14.50;99.90
6627;DHT22;3349;49.830;8.748;2022-10-15T06:25:44;14.50;99.90
6627;DHT22;3349;49.830;8.748;2022-10-15T06:28:11;14.50;99.90
6627;DHT22;3349;49.830;8.748;2022-10-15T06:30:38;14.50;99.90
6627;DHT22;3349;49.830;8.748;2022-10-15T06:33:06;14.50;99.90
6627;DHT22;3349;49.830;8.748;2022-10-15T06:35:32;14.60;99.90
6627;DHT22;3349;49.830;8.748;2022-10-15T06:38:00;14.50;99.90
6627;DHT22;3349;49.830;8.748;2022-10-15T06:40:28;14.50;99.90
6627;DHT22;3349;49.830;8.748;2022-10-15T06:42:55;14.50;99.90
6627;DHT22;3349;49.830;8.748;2022-10-15T06:45:28;14.50;99.90
6627;DHT22;3349;49.830;8.748;2022-10-15T06:47:55;14.60;99.90
6627;DHT22;3349;49.830;8.748;2022-10-15T06:50:23;14.60;99.90
6627;DHT22;3349;49.830;8.748;2022-10-15T06:52:49;14.50;99.90
6627;DHT22;3349;49.830;8.748;2022-10-15T06:55:16;14.60;99.90
6627;DHT22;3349;49.830;8.748;2022-10-15T06:57:43;14.60;99.90
6627;DHT22;3349;49.830;8.748;2022-10-15T07:00:11;14.60;99.90
6627;DHT22;3349;49.830;8.748;2022-10-15T07:02:37;14.60;99.90
6627;DHT22;3349;49.830;8.748;2022-10-15T07:05:05;14.60;99.90
6627;DHT22;3349;49.830;8.748;2022-10-15T07:07:34;14.60;99.90
6627;DHT22;3349;49.830;8.748;2022-10-15T07:10:00;14.70;99.90
6627;DHT22;3349;49.830;8.748;2022-10-15T07:12:27;14.60;99.90
6627;DHT22;3349;49.830;8.748;2022-10-15T07:14:54;14.70;99.90
6627;DHT22;3349;49.830;8.748;2022-10-15T07:17:21;14.70;99.90
6627;DHT22;3349;49.830;8.748;2022-10-15T07:19:47;14.70;99.90
6627;DHT22;3349;49.830;8.748;2022-10-15T07:22:14;14.70;99.90
6627;DHT22;3349;49.830;8.748;2022-10-15T07:24:42;14.70;99.90
6627;DHT22;3349;49.830;8.748;2022-10-15T07:27:09;14.70;99.90
6627;DHT22;3349;49.830;8.748;2022-10-15T07:29:35;14.80;99.90
6627;DHT22;3349;49.830;8.748;2022-10-15T07:32:03;14.80;99.90
6627;DHT22;3349;49.830;8.748;2022-10-15T07:34:29;14.90;99.90
6627;DHT22;3349;49.830;8.748;2022-10-15T07:36:56;14.90;99.90
6627;DHT22;3349;49.830;8.748;2022-10-15T07:39:23;15.00;99.90
6627;DHT22;3349;49.830;8.748;2022-10-15T07:41:51;15.00;99.90
6627;DHT22;3349;49.830;8.748;2022-10-15T07:44:18;15.00;99.90
6627;DHT22;3349;49.830;8.748;2022-10-15T07:46:46;15.10;99.90
6627;DHT22;3349;49.830;8.748;2022-10-15T07:49:12;15.10;99.90
6627;DHT22;3349;49.830;8.748;2022-10-15T07:51:40;15.10;99.90
6627;DHT22;3349;49.830;8.748;2022-10-15T07:54:07;15.10;99.90
6627;DHT22;3349;49.830;8.748;2022-10-15T07:56:34;15.20;99.90
6627;DHT22;3349;49.830;8.748;2022-10-15T07:59:02;15.30;99.90
6627;DHT22;3349;49.830;8.748;2022-10-15T08:01:29;15.30;99.90
6627;DHT22;3349;49.830;8.748;2022-10-15T08:03:55;15.30;99.90
6627;DHT22;3349;49.830;8.748;2022-10-15T08:06:22;15.20;99.90
6627;DHT22;3349;49.830;8.748;2022-10-15T08:08:49;15.20;99.90
6627;DHT22;3349;49.830;8.748;2022-10-15T08:11:16;15.20;99.90
6627;DHT22;3349;49.830;8.748;2022-10-15T08:13:43;15.20;99.90
6627;DHT22;3349;49.830;8.748;2022-10-15T08:16:14;15.30;99.90
6627;DHT22;3349;49.830;8.748;2022-10-15T08:18:41;15.30;99.90
6627;DHT22;3349;49.830;8.748;2022-10-15T08:21:09;15.40;99.90
6627;DHT22;3349;49.830;8.748;2022-10-15T08:23:35;15.50;99.90
6627;DHT22;3349;49.830;8.748;2022-10-15T08:26:03;15.60;99.90
6627;DHT22;3349;49.830;8.748;2022-10-15T08:28:31;15.70;99.90
6627;DHT22;3349;49.830;8.748;2022-10-15T08:30:58;15.90;99.90
6627;DHT22;3349;49.830;8.748;2022-10-15T08:33:27;16.00;99.90
6627;DHT22;3349;49.830;8.748;2022-10-15T08:35:54;16.20;99.90
6627;DHT22;3349;49.830;8.748;2022-10-15T08:38:20;16.40;99.90
6627;DHT22;3349;49.830;8.748;2022-10-15T08:40:48;16.50;90.40
6627;DHT22;3349;49.830;8.748;2022-10-15T08:43:19;16.60;81.20
6627;DHT22;3349;49.830;8.748;2022-10-15T08:45:48;16.60;55.40
6627;DHT22;3349;49.830;8.748;2022-10-15T08:48:19;16.60;54.40
6627;DHT22;3349;49.830;8.748;2022-10-15T08:50:53;16.40;56.70
6627;DHT22;3349;49.830;8.748;2022-10-15T08:53:23;16.50;64.50
6627;DHT22;3349;49.830;8.748;2022-10-15T08:55:53;16.50;63.40
6627;DHT22;3349;49.830;8.748;2022-10-15T08:58:24;16.40;60.80
6627;DHT22;3349;49.830;8.748;2022-10-15T09:00:57;16.40;62.40
6627;DHT22;3349;49.830;8.748;2022-10-15T09:03:33;16.40;63.20
6627;DHT22;3349;49.830;8.748;2022-10-15T09:06:08;16.40;66.50
6627;DHT22;3349;49.830;8.748;2022-10-15T09:08:44;16.50;65.00
6627;DHT22;3349;49.830;8.748;2022-10-15T09:11:19;16.50;66.60
6627;DHT22;3349;49.830;8.748;2022-10-15T09:13:47;16.60;69.10
6627;DHT22;3349;49.830;8.748;2022-10-15T09:16:15;16.60;63.70
6627;DHT22;3349;49.830;8.748;2022-10-15T09:18:45;16.70;74.30
6627;DHT22;3349;49.830;8.748;2022-10-15T09:21:14;16.70;74.10
6627;DHT22;3349;49.830;8.748;2022-10-15T09:23:42;16.80;66.90
6627;DHT22;3349;49.830;8.748;2022-10-15T09:26:21;16.90;68.80
6627;DHT22;3349;49.830;8.748;2022-10-15T09:28:56;16.90;66.10
6627;DHT22;3349;49.830;8.748;2022-10-15T09:31:29;16.90;78.10
6627;DHT22;3349;49.830;8.748;2022-10-15T09:34:02;16.90;72.10
6627;DHT22;3349;49.830;8.748;2022-10-15T09:36:36;16.90;70.60
6627;DHT22;3349;49.830;8.748;2022-10-15T09:39:32;16.90;70.10
6627;DHT22;3349;49.830;8.748;2022-10-15T09:42:12;17.00;69.80
6627;DHT22;3349;49.830;8.748;2022-10-15T09:44:42;17.00;63.00
6627;DHT22;3349;49.830;8.748;2022-10-15T09:47:21;17.10;68.10
6627;DHT22;3349;49.830;8.748;2022-10-15T09:49:48;17.10;67.90
6627;DHT22;3349;49.830;8.748;2022-10-15T09:52:20;17.30;72.90
6627;DHT22;3349;49.830;8.748;2022-10-15T09:54:58;17.30;90.20
6627;DHT22;3349;49.830;8.748;2022-10-15T09:57:30;17.30;92.60
6627;DHT22;3349;49.830;8.748;2022-10-15T09:59:59;17.50;96.50
6627;DHT22;3349;49.830;8.748;2022-10-15T10:02:26;17.50;92.40
6627;DHT22;3349;49.830;8.748;2022-10-15T10:04:54;17.70;95.00
6627;DHT22;3349;49.830;8.748;2022-10-15T10:07:31;17.70;91.80
6627;DHT22;3349;49.830;8.748;2022-10-15T10:10:02;17.70;93.50
6627;DHT22;3349;49.830;8.748;2022-10-15T10:12:31;17.70;94.30
6627;DHT22;3349;49.830;8.748;2022-10-15T10:15:02;17.80;98.20
6627;DHT22;3349;49.830;8.748;2022-10-15T10:17:30;17.80;96.40
6627;DHT22;3349;49.830;8.748;2022-10-15T10:20:12;17.60;96.20
6627;DHT22;3349;49.830;8.748;2022-10-15T10:22:45;17.50;98.00
6627;DHT22;3349;49.830;8.748;2022-10-15T10:25:28;17.30;98.20
6627;DHT22;3349;49.830;8.748;2022-10-15T10:27:56;17.20;99.90
6627;DHT22;3349;49.830;8.748;2022-10-15T10:30:24;17.10;99.90
6627;DHT22;3349;49.830;8.748;2022-10-15T10:32:54;16.90;99.90
6627;DHT22;3349;49.830;8.748;2022-10-15T10:35:24;16.70;99.90
6627;DHT22;3349;49.830;8.748;2022-10-15T10:37:53;16.60;99.90
6627;DHT22;3349;49.830;8.748;2022-10-15T10:40:23;16.50;99.90
6627;DHT22;3349;49.830;8.748;2022-10-15T10:43:09;16.40;99.90
6627;DHT22;3349;49.830;8.748;2022-10-15T10:45:37;16.30;99.90
6627;DHT22;3349;49.830;8.748;2022-10-15T10:48:17;16.30;99.90
6627;DHT22;3349;49.830;8.748;2022-10-15T10:50:44;16.20;99.90
6627;DHT22;3349;49.830;8.748;2022-10-15T10:53:23;16.30;99.90
6627;DHT22;3349;49.830;8.748;2022-10-15T10:55:51;16.40;99.90
6627;DHT22;3349;49.830;8.748;2022-10-15T10:58:21;16.50;99.90
6627;DHT22;3349;49.830;8.748;2022-10-15T11:00:49;16.60;99.90
6627;DHT22;3349;49.830;8.748;2022-10-15T11:03:29;16.60;99.90
6627;DHT22;3349;49.830;8.748;2022-10-15T11:06:03;16.80;99.90
6627;DHT22;3349;49.830;8.748;2022-10-15T11:08:35;17.10;99.90
6627;DHT22;3349;49.830;8.748;2022-10-15T11:11:11;17.30;99.90
6627;DHT22;3349;49.830;8.748;2022-10-15T11:13:51;17.70;99.90
6627;DHT22;3349;49.830;8.748;2022-10-15T11:16:31;18.00;99.90
6627;DHT22;3349;49.830;8.748;2022-10-15T11:19:11;18.00;99.90
6627;DHT22;3349;49.830;8.748;2022-10-15T11:21:44;17.90;98.30
6627;DHT22;3349;49.830;8.748;2022-10-15T11:24:19;17.80;99.80
6627;DHT22;3349;49.830;8.748;2022-10-15T11:27:07;17.60;99.90
6627;DHT22;3349;49.830;8.748;2022-10-15T11:29:41;17.50;99.90
6627;DHT22;3349;49.830;8.748;2022-10-15T11:32:30;17.50;99.90
6627;DHT22;3349;49.830;8.748;2022-10-15T11:35:20;17.50;99.90
6627;DHT22;3349;49.830;8.748;2022-10-15T11:37:59;17.50;99.90
6627;DHT22;3349;49.830;8.748;2022-10-15T11:40:34;17.50;99.90
6627;DHT22;3349;49.830;8.748;2022-10-15T11:43:08;17.40;99.90
6627;DHT22;3349;49.830;8.748;2022-10-15T11:45:49;17.40;99.90
6627;DHT22;3349;49.830;8.748;2022-10-15T11:48:27;17.50;99.90
6627;DHT22;3349;49.830;8.748;2022-10-15T11:51:02;17.40;99.90
6627;DHT22;3349;49.830;8.748;2022-10-15T11:53:51;17.50;99.90
6627;DHT22;3349;49.830;8.748;2022-10-15T11:56:26;17.50;99.90
6627;DHT22;3349;49.830;8.748;2022-10-15T11:58:56;17.50;99.90
6627;DHT22;3349;49.830;8.748;2022-10-15T12:01:29;17.50;99.90
6627;DHT22;3349;49.830;8.748;2022-10-15T12:04:01;17.50;99.90
6627;DHT22;3349;49.830;8.748;2022-10-15T12:06:31;17.50;99.90
6627;DHT22;3349;49.830;8.748;2022-10-15T12:09:02;17.50;99.90
6627;DHT22;3349;49.830;8.748;2022-10-15T12:11:39;17.40;99.90
6627;DHT22;3349;49.830;8.748;2022-10-15T12:14:15;17.50;99.90
6627;DHT22;3349;49.830;8.748;2022-10-15T12:16:45;17.40;99.90
6627;DHT22;3349;49.830;8.748;2022-10-15T12:19:16;17.40;99.90
6627;DHT22;3349;49.830;8.748;2022-10-15T12:22:01;17.50;99.90
6627;DHT22;3349;49.830;8.748;2022-10-15T12:24:51;17.70;99.90
6627;DHT22;3349;49.830;8.748;2022-10-15T12:27:28;17.70;99.90
6627;DHT22;3349;49.830;8.748;2022-10-15T12:30:24;17.80;99.90
6627;DHT22;3349;49.830;8.748;2022-10-15T12:32:52;17.80;99.90
6627;DHT22;3349;49.830;8.748;2022-10-15T12:35:28;17.80;98.60
6627;DHT22;3349;49.830;8.748;2022-10-15T12:38:11;17.80;98.00
6627;DHT22;3349;49.830;8.748;2022-10-15T12:40:43;17.70;99.30
6627;DHT22;3349;49.830;8.748;2022-10-15T12:43:14;17.60;99.90
6627;DHT22;3349;49.830;8.748;2022-10-15T12:45:49;17.50;99.50
6627;DHT22;3349;49.830;8.748;2022-10-15T12:48:22;17.40;99.90
6627;DHT22;3349;49.830;8.748;2022-10-15T12:54:39;17.40;99.90
6627;DHT22;3349;49.830;8.748;2022-10-15T12:57:52;17.20;99.90
6627;DHT22;3349;49.830;8.748;2022-10-15T13:00:38;17.20;99.90
6627;DHT22;3349;49.830;8.748;2022-10-15T13:03:14;17.20;99.90
6627;DHT22;3349;49.830;8.748;2022-10-15T13:05:42;17.10;99.90
6627;DHT22;3349;49.830;8.748;2022-10-15T13:08:13;17.10;99.90
6627;DHT22;3349;49.830;8.748;2022-10-15T13:10:47;17.10;99.90
6627;DHT22;3349;49.830;8.748;2022-10-15T13:13:16;17.10;99.90
6627;DHT22;3349;49.830;8.748;2022-10-15T13:15:51;17.00;99.90
6627;DHT22;3349;49.830;8.748;2022-10-15T13:18:21;17.00;99.90
6627;DHT22;3349;49.830;8.748;2022-10-15T13:20:50;17.10;99.90
6627;DHT22;3349;49.830;8.748;2022-10-15T13:23:20;17.00;99.90
6627;DHT22;3349;49.830;8.748;2022-10-15T13:25:50;17.00;99.90
6627;DHT22;3349;49.830;8.748;2022-10-15T13:28:35;17.00;99.90
6627;DHT22;3349;49.830;8.748;2022-10-15T13:31:05;17.10;99.90
6627;DHT22;3349;49.830;8.748;2022-10-15T13:33:33;17.10;99.90
6627;DHT22;3349;49.830;8.748;2022-10-15T13:36:05;17.20;99.90
6627;DHT22;3349;49.830;8.748;2022-10-15T13:38:33;17.10;99.90
6627;DHT22;3349;49.830;8.748;2022-10-15T13:41:00;17.10;99.90
6627;DHT22;3349;49.830;8.748;2022-10-15T13:43:27;17.10;99.90
6627;DHT22;3349;49.830;8.748;2022-10-15T13:45:55;17.10;99.90
6627;DHT22;3349;49.830;8.748;2022-10-15T13:48:25;17.10;99.90
6627;DHT22;3349;49.830;8.748;2022-10-15T13:50:54;17.10;99.90
6627;DHT22;3349;49.830;8.748;2022-10-15T13:53:25;17.00;99.90
6627;DHT22;3349;49.830;8.748;2022-10-15T13:55:55;17.00;99.90
6627;DHT22;3349;49.830;8.748;2022-10-15T13:58:24;17.00;99.90
6627;DHT22;3349;49.830;8.748;2022-10-15T14:00:56;16.90;99.90
6627;DHT22;3349;49.830;8.748;2022-10-15T14:03:26;16.90;99.90
6627;DHT22;3349;49.830;8.748;2022-10-15T14:05:54;16.90;99.90
6627;DHT22;3349;49.830;8.748;2022-10-15T14:08:24;16.90;99.90
6627;DHT22;3349;49.830;8.748;2022-10-15T14:10:52;16.90;99.90
6627;DHT22;3349;49.830;8.748;2022-10-15T14:13:20;16.90;99.90
6627;DHT22;3349;49.830;8.748;2022-10-15T14:15:59;16.90;99.90
6627;DHT22;3349;49.830;8.748;2022-10-15T14:18:32;16.80;99.90
6627;DHT22;3349;49.830;8.748;2022-10-15T14:21:00;16.90;99.90
6627;DHT22;3349;49.830;8.748;2022-10-15T14:23:27;16.80;99.90
6627;DHT22;3349;49.830;8.748;2022-10-15T14:25:57;16.90;99.90
6627;DHT22;3349;49.830;8.748;2022-10-15T14:28:24;16.90;99.90
6627;DHT22;3349;49.830;8.748;2022-10-15T14:30:51;16.90;99.90
6627;DHT22;3349;49.830;8.748;2022-10-15T14:33:32;16.80;99.90
6627;DHT22;3349;49.830;8.748;2022-10-15T14:36:04;16.80;99.90
6627;DHT22;3349;49.830;8.748;2022-10-15T14:38:31;16.80;99.90
6627;DHT22;3349;49.830;8.748;2022-10-15T14:40:59;16.70;99.90
6627;DHT22;3349;49.830;8.748;2022-10-15T14:43:31;16.80;99.90
6627;DHT22;3349;49.830;8.748;2022-10-15T14:46:00;16.80;99.90
6627;DHT22;3349;49.830;8.748;2022-10-15T14:48:33;16.80;99.90
6627;DHT22;3349;49.830;8.748;2022-10-15T14:51:04;16.80;99.90
6627;DHT22;3349;49.830;8.748;2022-10-15T14:53:33;16.80;99.90
6627;DHT22;3349;49.830;8.748;2022-10-15T14:56:02;16.80;99.90
6627;DHT22;3349;49.830;8.748;2022-10-15T14:58:30;16.80;99.90
6627;DHT22;3349;49.830;8.748;2022-10-15T15:00:58;16.80;99.90
6627;DHT22;3349;49.830;8.748;2022-10-15T15:03:28;16.80;99.90
6627;DHT22;3349;49.830;8.748;2022-10-15T15:05:57;16.80;99.90
6627;DHT22;3349;49.830;8.748;2022-10-15T15:08:24;16.80;99.90
6627;DHT22;3349;49.830;8.748;2022-10-15T15:10:54;16.80;99.90
6627;DHT22;3349;49.830;8.748;2022-10-15T15:13:23;16.80;99.90
6627;DHT22;3349;49.830;8.748;2022-10-15T15:15:50;16.80;99.90
6627;DHT22;3349;49.830;8.748;2022-10-15T15:18:17;16.70;99.90
6627;DHT22;3349;49.830;8.748;2022-10-15T15:20:45;16.70;99.90
6627;DHT22;3349;49.830;8.748;2022-10-15T15:23:17;16.70;99.90
6627;DHT22;3349;49.830;8.748;2022-10-15T15:25:45;16.70;99.90
6627;DHT22;3349;49.830;8.748;2022-10-15T15:28:12;16.70;99.90
6627;DHT22;3349;49.830;8.748;2022-10-15T15:30:40;16.70;99.90
6627;DHT22;3349;49.830;8.748;2022-10-15T15:33:09;16.70;99.90
6627;DHT22;3349;49.830;8.748;2022-10-15T15:35:40;16.70;99.90
6627;DHT22;3349;49.830;8.748;2022-10-15T15:38:16;16.70;99.90
6627;DHT22;3349;49.830;8.748;2022-10-15T15:40:44;16.70;99.90
6627;DHT22;3349;49.830;8.748;2022-10-15T15:43:12;16.70;99.90
6627;DHT22;3349;49.830;8.748;2022-10-15T15:45:39;16.70;99.90
6627;DHT22;3349;49.830;8.748;2022-10-15T15:48:06;16.80;99.90
6627;DHT22;3349;49.830;8.748;2022-10-15T15:50:33;16.80;99.90
6627;DHT22;3349;49.830;8.748;2022-10-15T15:53:00;16.70;99.90
6627;DHT22;3349;49.830;8.748;2022-10-15T15:55:29;16.70;99.90
6627;DHT22;3349;49.830;8.748;2022-10-15T15:57:55;16.70;99.90
6627;DHT22;3349;49.830;8.748;2022-10-15T16:00:22;16.70;99.90
6627;DHT22;3349;49.830;8.748;2022-10-15T16:02:49;16.70;99.90
6627;DHT22;3349;49.830;8.748;2022-10-15T16:05:16;16.60;99.90
6627;DHT22;3349;49.830;8.748;2022-10-15T16:07:43;16.60;99.90
6627;DHT22;3349;49.830;8.748;2022-10-15T16:10:10;16.60;99.90
6627;DHT22;3349;49.830;8.748;2022-10-15T16:12:38;16.50;99.90
6627;DHT22;3349;49.830;8.748;2022-10-15T16:15:06;16.40;99.90
6627;DHT22;3349;49.830;8.748;2022-10-15T16:17:33;16.40;99.90
6627;DHT22;3349;49.830;8.748;2022-10-15T16:20:00;16.40;99.90
6627;DHT22;3349;49.830;8.748;2022-10-15T16:22:27;16.40;99.90
6627;DHT22;3349;49.830;8.748;2022-10-15T16:24:54;16.40;99.90
6627;DHT22;3349;49.830;8.748;2022-10-15T16:27:20;16.40;99.90